Terminal Aerodrome Forecast
Issued by NWS Spokane, WA

Home | Current Version | Previous Version | Text Only | Print | Product List | Glossary On
Versions: 1 2 3 4 5 6 7 8 9 10 11 12 13 14 15 16 17 18 19 20
000
FTUS46 KOTX 222337
TAFLWS
TAF
KLWS 222337Z 2300/2324 31008KT P6SM VCSH BKN040 OVC200
     FM230300 25006KT P6SM SCT020 BKN200
     FM230600 29004KT P6SM BCFG BKN020
     FM231400 29003KT 4SM BR BKN015
     FM232100 29008KT P6SM BKN250=

USA.gov is the U.S. government's official web portal to all federal, state and local government web resources and services.